sensor_id;sensor_type;location;lat;lon;timestamp;P1;durP1;ratioP1;P2;durP2;ratioP2
14665;SDS011;7420;53.574;10.040;2023-03-03T00:00:54;59.25;;;26.60;;
14665;SDS011;7420;53.574;10.040;2023-03-03T00:03:20;56.67;;;26.70;;
14665;SDS011;7420;53.574;10.040;2023-03-03T00:05:48;50.75;;;25.35;;
14665;SDS011;7420;53.574;10.040;2023-03-03T00:08:14;58.33;;;27.83;;
14665;SDS011;7420;53.574;10.040;2023-03-03T00:10:39;65.55;;;28.75;;
14665;SDS011;7420;53.574;10.040;2023-03-03T00:13:26;74.85;;;31.20;;
14665;SDS011;7420;53.574;10.040;2023-03-03T00:15:51;68.82;;;28.17;;
14665;SDS011;7420;53.574;10.040;2023-03-03T00:18:21;77.22;;;30.65;;
14665;SDS011;7420;53.574;10.040;2023-03-03T00:20:51;87.85;;;33.00;;
14665;SDS011;7420;53.574;10.040;2023-03-03T00:23:19;73.35;;;31.02;;
14665;SDS011;7420;53.574;10.040;2023-03-03T00:25:53;89.70;;;35.08;;
14665;SDS011;7420;53.574;10.040;2023-03-03T00:31:13;69.45;;;31.15;;
14665;SDS011;7420;53.574;10.040;2023-03-03T00:33:42;82.15;;;31.63;;
14665;SDS011;7420;53.574;10.040;2023-03-03T00:38:41;95.75;;;36.00;;
14665;SDS011;7420;53.574;10.040;2023-03-03T00:43:49;81.72;;;33.05;;
14665;SDS011;7420;53.574;10.040;2023-03-03T00:46:17;84.25;;;33.28;;
14665;SDS011;7420;53.574;10.040;2023-03-03T00:48:44;148.07;;;43.30;;
14665;SDS011;7420;53.574;10.040;2023-03-03T00:51:16;84.03;;;31.98;;
14665;SDS011;7420;53.574;10.040;2023-03-03T00:53:50;104.75;;;33.53;;
14665;SDS011;7420;53.574;10.040;2023-03-03T00:56:16;91.53;;;32.97;;
14665;SDS011;7420;53.574;10.040;2023-03-03T00:58:41;84.68;;;36.10;;
14665;SDS011;7420;53.574;10.040;2023-03-03T01:01:09;99.50;;;34.33;;
14665;SDS011;7420;53.574;10.040;2023-03-03T01:03:35;84.50;;;31.15;;
14665;SDS011;7420;53.574;10.040;2023-03-03T01:06:00;88.68;;;33.85;;
14665;SDS011;7420;53.574;10.040;2023-03-03T01:08:25;88.05;;;32.10;;
14665;SDS011;7420;53.574;10.040;2023-03-03T01:10:52;82.95;;;32.67;;
14665;SDS011;7420;53.574;10.040;2023-03-03T01:13:20;108.68;;;36.75;;
14665;SDS011;7420;53.574;10.040;2023-03-03T01:15:48;74.57;;;31.38;;
14665;SDS011;7420;53.574;10.040;2023-03-03T01:18:14;87.05;;;32.13;;
14665;SDS011;7420;53.574;10.040;2023-03-03T01:20:40;102.63;;;34.00;;
14665;SDS011;7420;53.574;10.040;2023-03-03T01:23:06;94.35;;;34.05;;
14665;SDS011;7420;53.574;10.040;2023-03-03T01:25:32;146.23;;;42.60;;
14665;SDS011;7420;53.574;10.040;2023-03-03T01:27:57;87.10;;;32.33;;
14665;SDS011;7420;53.574;10.040;2023-03-03T01:30:23;98.65;;;36.42;;
14665;SDS011;7420;53.574;10.040;2023-03-03T01:32:49;77.70;;;32.97;;
14665;SDS011;7420;53.574;10.040;2023-03-03T01:35:14;94.25;;;35.13;;
14665;SDS011;7420;53.574;10.040;2023-03-03T01:37:40;98.60;;;32.55;;
14665;SDS011;7420;53.574;10.040;2023-03-03T01:40:05;86.80;;;32.75;;
14665;SDS011;7420;53.574;10.040;2023-03-03T01:42:36;68.75;;;31.92;;
14665;SDS011;7420;53.574;10.040;2023-03-03T01:45:37;75.72;;;31.27;;
14665;SDS011;7420;53.574;10.040;2023-03-03T01:48:10;103.88;;;33.75;;
14665;SDS011;7420;53.574;10.040;2023-03-03T01:50:40;75.47;;;30.90;;
14665;SDS011;7420;53.574;10.040;2023-03-03T01:53:14;114.38;;;32.75;;
14665;SDS011;7420;53.574;10.040;2023-03-03T01:55:44;79.28;;;33.55;;
14665;SDS011;7420;53.574;10.040;2023-03-03T01:58:15;77.13;;;30.60;;
14665;SDS011;7420;53.574;10.040;2023-03-03T02:00:46;127.03;;;34.75;;
14665;SDS011;7420;53.574;10.040;2023-03-03T02:03:14;79.57;;;32.05;;
14665;SDS011;7420;53.574;10.040;2023-03-03T02:05:40;78.07;;;32.90;;
14665;SDS011;7420;53.574;10.040;2023-03-03T02:08:07;86.90;;;31.17;;
14665;SDS011;7420;53.574;10.040;2023-03-03T02:10:36;93.03;;;36.15;;
14665;SDS011;7420;53.574;10.040;2023-03-03T02:13:02;112.07;;;35.78;;
14665;SDS011;7420;53.574;10.040;2023-03-03T02:15:29;86.43;;;31.65;;
14665;SDS011;7420;53.574;10.040;2023-03-03T02:23:08;104.90;;;34.60;;
14665;SDS011;7420;53.574;10.040;2023-03-03T02:28:18;86.30;;;29.08;;
14665;SDS011;7420;53.574;10.040;2023-03-03T02:30:44;98.05;;;37.10;;
14665;SDS011;7420;53.574;10.040;2023-03-03T02:33:10;74.03;;;31.77;;
14665;SDS011;7420;53.574;10.040;2023-03-03T02:35:37;126.90;;;39.40;;
14665;SDS011;7420;53.574;10.040;2023-03-03T02:38:18;70.82;;;30.15;;
14665;SDS011;7420;53.574;10.040;2023-03-03T02:43:57;102.43;;;30.58;;
14665;SDS011;7420;53.574;10.040;2023-03-03T02:46:31;69.05;;;30.05;;
14665;SDS011;7420;53.574;10.040;2023-03-03T02:48:59;94.70;;;32.05;;
14665;SDS011;7420;53.574;10.040;2023-03-03T02:51:25;75.78;;;30.20;;
14665;SDS011;7420;53.574;10.040;2023-03-03T02:53:50;98.05;;;31.20;;
14665;SDS011;7420;53.574;10.040;2023-03-03T02:56:16;85.50;;;30.33;;
14665;SDS011;7420;53.574;10.040;2023-03-03T02:58:41;73.93;;;27.80;;
14665;SDS011;7420;53.574;10.040;2023-03-03T03:01:07;88.05;;;30.33;;
14665;SDS011;7420;53.574;10.040;2023-03-03T03:03:32;75.90;;;29.65;;
14665;SDS011;7420;53.574;10.040;2023-03-03T03:05:57;97.13;;;32.25;;
14665;SDS011;7420;53.574;10.040;2023-03-03T03:08:26;90.20;;;30.58;;
14665;SDS011;7420;53.574;10.040;2023-03-03T03:10:51;85.95;;;30.63;;
14665;SDS011;7420;53.574;10.040;2023-03-03T03:13:17;71.70;;;29.58;;
14665;SDS011;7420;53.574;10.040;2023-03-03T03:15:44;61.35;;;26.20;;
14665;SDS011;7420;53.574;10.040;2023-03-03T03:18:11;98.60;;;34.67;;
14665;SDS011;7420;53.574;10.040;2023-03-03T03:20:36;73.18;;;28.00;;
14665;SDS011;7420;53.574;10.040;2023-03-03T03:23:04;74.68;;;28.70;;
14665;SDS011;7420;53.574;10.040;2023-03-03T03:25:29;65.80;;;29.48;;
14665;SDS011;7420;53.574;10.040;2023-03-03T03:27:55;64.80;;;26.23;;
14665;SDS011;7420;53.574;10.040;2023-03-03T03:30:20;56.00;;;25.58;;
14665;SDS011;7420;53.574;10.040;2023-03-03T03:32:46;62.67;;;27.13;;
14665;SDS011;7420;53.574;10.040;2023-03-03T03:35:11;61.72;;;26.42;;
14665;SDS011;7420;53.574;10.040;2023-03-03T03:37:37;55.67;;;26.13;;
14665;SDS011;7420;53.574;10.040;2023-03-03T03:40:03;64.20;;;29.02;;
14665;SDS011;7420;53.574;10.040;2023-03-03T03:42:30;50.80;;;25.80;;
14665;SDS011;7420;53.574;10.040;2023-03-03T03:44:55;51.35;;;24.42;;
14665;SDS011;7420;53.574;10.040;2023-03-03T03:47:21;62.65;;;25.50;;
14665;SDS011;7420;53.574;10.040;2023-03-03T03:49:46;55.30;;;26.65;;
14665;SDS011;7420;53.574;10.040;2023-03-03T03:52:11;59.17;;;25.98;;
14665;SDS011;7420;53.574;10.040;2023-03-03T03:54:37;92.97;;;29.73;;
14665;SDS011;7420;53.574;10.040;2023-03-03T03:57:02;67.68;;;25.98;;
14665;SDS011;7420;53.574;10.040;2023-03-03T03:59:27;74.13;;;26.33;;
14665;SDS011;7420;53.574;10.040;2023-03-03T04:01:53;65.45;;;25.50;;
14665;SDS011;7420;53.574;10.040;2023-03-03T04:04:18;55.92;;;26.00;;
14665;SDS011;7420;53.574;10.040;2023-03-03T04:06:43;87.18;;;30.52;;
14665;SDS011;7420;53.574;10.040;2023-03-03T04:09:09;52.30;;;25.05;;
14665;SDS011;7420;53.574;10.040;2023-03-03T04:11:35;81.18;;;29.85;;
14665;SDS011;7420;53.574;10.040;2023-03-03T04:14:00;58.95;;;27.77;;
14665;SDS011;7420;53.574;10.040;2023-03-03T04:16:25;67.03;;;28.05;;
14665;SDS011;7420;53.574;10.040;2023-03-03T04:18:51;52.92;;;26.15;;
14665;SDS011;7420;53.574;10.040;2023-03-03T04:21:16;67.93;;;27.65;;
14665;SDS011;7420;53.574;10.040;2023-03-03T04:23:42;63.78;;;27.60;;
14665;SDS011;7420;53.574;10.040;2023-03-03T04:26:07;61.13;;;28.33;;
14665;SDS011;7420;53.574;10.040;2023-03-03T04:28:34;69.47;;;27.67;;
14665;SDS011;7420;53.574;10.040;2023-03-03T04:30:59;63.95;;;25.77;;
14665;SDS011;7420;53.574;10.040;2023-03-03T04:33:25;76.63;;;27.90;;
14665;SDS011;7420;53.574;10.040;2023-03-03T04:35:50;62.63;;;27.90;;
14665;SDS011;7420;53.574;10.040;2023-03-03T04:38:16;72.50;;;28.15;;
14665;SDS011;7420;53.574;10.040;2023-03-03T04:40:41;69.88;;;27.60;;
14665;SDS011;7420;53.574;10.040;2023-03-03T04:43:07;57.22;;;23.27;;
14665;SDS011;7420;53.574;10.040;2023-03-03T04:45:34;58.83;;;25.27;;
14665;SDS011;7420;53.574;10.040;2023-03-03T04:47:59;59.83;;;27.10;;
14665;SDS011;7420;53.574;10.040;2023-03-03T04:50:25;52.88;;;25.42;;
14665;SDS011;7420;53.574;10.040;2023-03-03T04:52:51;59.42;;;25.90;;
14665;SDS011;7420;53.574;10.040;2023-03-03T04:55:16;52.17;;;24.05;;
14665;SDS011;7420;53.574;10.040;2023-03-03T04:57:42;58.88;;;26.52;;
14665;SDS011;7420;53.574;10.040;2023-03-03T05:00:08;53.92;;;27.00;;
14665;SDS011;7420;53.574;10.040;2023-03-03T05:02:37;45.72;;;23.95;;
14665;SDS011;7420;53.574;10.040;2023-03-03T05:05:02;63.92;;;28.02;;
14665;SDS011;7420;53.574;10.040;2023-03-03T05:07:28;50.90;;;24.02;;
14665;SDS011;7420;53.574;10.040;2023-03-03T05:09:53;45.15;;;22.70;;
14665;SDS011;7420;53.574;10.040;2023-03-03T05:12:19;47.97;;;24.08;;
14665;SDS011;7420;53.574;10.040;2023-03-03T05:14:45;94.85;;;32.83;;
14665;SDS011;7420;53.574;10.040;2023-03-03T05:17:10;48.40;;;23.58;;
14665;SDS011;7420;53.574;10.040;2023-03-03T05:19:35;50.88;;;23.65;;
14665;SDS011;7420;53.574;10.040;2023-03-03T05:22:01;53.30;;;24.88;;
14665;SDS011;7420;53.574;10.040;2023-03-03T05:24:26;59.42;;;25.17;;
14665;SDS011;7420;53.574;10.040;2023-03-03T05:26:52;53.35;;;26.15;;
14665;SDS011;7420;53.574;10.040;2023-03-03T05:29:17;68.90;;;28.55;;
14665;SDS011;7420;53.574;10.040;2023-03-03T05:31:43;53.20;;;27.02;;
14665;SDS011;7420;53.574;10.040;2023-03-03T05:34:08;63.03;;;26.02;;
14665;SDS011;7420;53.574;10.040;2023-03-03T05:36:34;63.85;;;26.90;;
14665;SDS011;7420;53.574;10.040;2023-03-03T05:38:59;75.30;;;29.92;;
14665;SDS011;7420;53.574;10.040;2023-03-03T05:41:24;60.80;;;28.05;;
14665;SDS011;7420;53.574;10.040;2023-03-03T05:43:50;66.88;;;29.42;;
14665;SDS011;7420;53.574;10.040;2023-03-03T05:46:15;57.55;;;27.83;;
14665;SDS011;7420;53.574;10.040;2023-03-03T05:48:41;59.83;;;28.25;;
14665;SDS011;7420;53.574;10.040;2023-03-03T05:51:07;71.82;;;30.05;;
14665;SDS011;7420;53.574;10.040;2023-03-03T05:53:32;60.90;;;28.85;;
14665;SDS011;7420;53.574;10.040;2023-03-03T05:55:58;57.63;;;29.17;;
14665;SDS011;7420;53.574;10.040;2023-03-03T05:58:23;84.38;;;31.90;;
14665;SDS011;7420;53.574;10.040;2023-03-03T06:00:48;64.50;;;26.92;;
14665;SDS011;7420;53.574;10.040;2023-03-03T06:03:14;53.83;;;24.83;;
14665;SDS011;7420;53.574;10.040;2023-03-03T06:05:39;68.60;;;26.38;;
14665;SDS011;7420;53.574;10.040;2023-03-03T06:08:05;127.97;;;36.85;;
14665;SDS011;7420;53.574;10.040;2023-03-03T06:10:30;70.75;;;31.23;;
14665;SDS011;7420;53.574;10.040;2023-03-03T06:12:55;79.70;;;33.45;;
14665;SDS011;7420;53.574;10.040;2023-03-03T06:15:22;68.03;;;29.75;;
14665;SDS011;7420;53.574;10.040;2023-03-03T06:17:48;69.53;;;31.00;;
14665;SDS011;7420;53.574;10.040;2023-03-03T06:20:13;80.47;;;31.08;;
14665;SDS011;7420;53.574;10.040;2023-03-03T06:22:39;63.97;;;30.40;;
14665;SDS011;7420;53.574;10.040;2023-03-03T06:25:04;56.13;;;27.77;;
14665;SDS011;7420;53.574;10.040;2023-03-03T06:27:30;112.22;;;35.28;;
14665;SDS011;7420;53.574;10.040;2023-03-03T06:29:55;65.10;;;26.92;;
14665;SDS011;7420;53.574;10.040;2023-03-03T06:32:21;83.18;;;31.67;;
14665;SDS011;7420;53.574;10.040;2023-03-03T06:34:46;63.65;;;28.20;;
14665;SDS011;7420;53.574;10.040;2023-03-03T06:37:12;50.40;;;26.33;;
14665;SDS011;7420;53.574;10.040;2023-03-03T06:39:37;64.68;;;27.67;;
14665;SDS011;7420;53.574;10.040;2023-03-03T06:42:02;68.15;;;29.98;;
14665;SDS011;7420;53.574;10.040;2023-03-03T06:44:28;67.85;;;28.55;;
14665;SDS011;7420;53.574;10.040;2023-03-03T06:46:53;73.47;;;28.88;;
14665;SDS011;7420;53.574;10.040;2023-03-03T06:49:21;86.13;;;30.92;;
14665;SDS011;7420;53.574;10.040;2023-03-03T06:51:47;66.68;;;24.83;;
14665;SDS011;7420;53.574;10.040;2023-03-03T06:54:16;64.47;;;26.75;;
14665;SDS011;7420;53.574;10.040;2023-03-03T06:56:43;69.57;;;28.50;;
14665;SDS011;7420;53.574;10.040;2023-03-03T06:59:19;58.92;;;24.77;;
14665;SDS011;7420;53.574;10.040;2023-03-03T07:01:46;56.80;;;25.33;;
14665;SDS011;7420;53.574;10.040;2023-03-03T07:04:26;60.95;;;27.77;;
14665;SDS011;7420;53.574;10.040;2023-03-03T07:06:55;57.35;;;25.27;;
14665;SDS011;7420;53.574;10.040;2023-03-03T07:09:26;52.30;;;24.17;;
14665;SDS011;7420;53.574;10.040;2023-03-03T07:11:55;47.33;;;22.23;;
14665;SDS011;7420;53.574;10.040;2023-03-03T07:14:25;48.95;;;22.15;;
14665;SDS011;7420;53.574;10.040;2023-03-03T07:16:53;50.25;;;23.98;;
14665;SDS011;7420;53.574;10.040;2023-03-03T07:19:32;36.70;;;19.95;;
14665;SDS011;7420;53.574;10.040;2023-03-03T07:22:00;38.30;;;20.90;;
14665;SDS011;7420;53.574;10.040;2023-03-03T07:24:42;42.88;;;19.17;;
14665;SDS011;7420;53.574;10.040;2023-03-03T07:27:11;43.95;;;20.50;;
14665;SDS011;7420;53.574;10.040;2023-03-03T07:29:41;65.53;;;21.52;;
14665;SDS011;7420;53.574;10.040;2023-03-03T07:32:25;40.67;;;19.10;;
14665;SDS011;7420;53.574;10.040;2023-03-03T07:34:57;39.17;;;20.00;;
14665;SDS011;7420;53.574;10.040;2023-03-03T07:37:29;53.17;;;24.35;;
14665;SDS011;7420;53.574;10.040;2023-03-03T07:39:59;44.42;;;21.83;;
14665;SDS011;7420;53.574;10.040;2023-03-03T07:42:34;45.22;;;23.13;;
14665;SDS011;7420;53.574;10.040;2023-03-03T07:47:50;39.45;;;18.45;;
14665;SDS011;7420;53.574;10.040;2023-03-03T07:50:19;68.55;;;24.35;;
14665;SDS011;7420;53.574;10.040;2023-03-03T07:52:52;36.63;;;20.40;;
14665;SDS011;7420;53.574;10.040;2023-03-03T07:57:53;65.20;;;23.73;;
14665;SDS011;7420;53.574;10.040;2023-03-03T08:03:34;66.93;;;27.50;;
14665;SDS011;7420;53.574;10.040;2023-03-03T08:05:43;37.67;;;19.25;;
14665;SDS011;7420;53.574;10.040;2023-03-03T08:10:51;48.65;;;21.10;;
14665;SDS011;7420;53.574;10.040;2023-03-03T08:15:46;45.55;;;20.30;;
14665;SDS011;7420;53.574;10.040;2023-03-03T08:18:36;34.45;;;18.67;;
14665;SDS011;7420;53.574;10.040;2023-03-03T08:21:15;38.97;;;20.00;;
14665;SDS011;7420;53.574;10.040;2023-03-03T08:23:42;34.17;;;18.67;;
14665;SDS011;7420;53.574;10.040;2023-03-03T08:26:08;41.42;;;19.88;;
14665;SDS011;7420;53.574;10.040;2023-03-03T08:28:34;44.58;;;20.67;;
14665;SDS011;7420;53.574;10.040;2023-03-03T08:30:59;36.80;;;18.65;;
14665;SDS011;7420;53.574;10.040;2023-03-03T08:33:25;44.08;;;19.05;;
14665;SDS011;7420;53.574;10.040;2023-03-03T08:35:50;32.65;;;17.98;;
14665;SDS011;7420;53.574;10.040;2023-03-03T08:38:17;39.63;;;20.38;;
14665;SDS011;7420;53.574;10.040;2023-03-03T08:40:44;31.00;;;17.33;;
14665;SDS011;7420;53.574;10.040;2023-03-03T08:43:10;38.22;;;19.23;;
14665;SDS011;7420;53.574;10.040;2023-03-03T08:45:41;28.55;;;17.25;;
14665;SDS011;7420;53.574;10.040;2023-03-03T08:48:07;38.80;;;18.10;;
14665;SDS011;7420;53.574;10.040;2023-03-03T08:50:32;35.15;;;18.08;;
14665;SDS011;7420;53.574;10.040;2023-03-03T08:52:58;30.23;;;17.17;;
14665;SDS011;7420;53.574;10.040;2023-03-03T08:55:24;31.83;;;18.30;;
14665;SDS011;7420;53.574;10.040;2023-03-03T08:57:49;33.50;;;17.80;;
14665;SDS011;7420;53.574;10.040;2023-03-03T09:02:41;28.80;;;14.90;;
14665;SDS011;7420;53.574;10.040;2023-03-03T09:05:07;33.35;;;17.15;;
14665;SDS011;7420;53.574;10.040;2023-03-03T09:07:33;38.28;;;18.88;;
14665;SDS011;7420;53.574;10.040;2023-03-03T09:09:59;37.38;;;18.65;;
14665;SDS011;7420;53.574;10.040;2023-03-03T09:12:29;40.40;;;19.73;;
14665;SDS011;7420;53.574;10.040;2023-03-03T09:14:59;42.85;;;19.63;;
14665;SDS011;7420;53.574;10.040;2023-03-03T09:17:36;42.03;;;21.00;;
14665;SDS011;7420;53.574;10.040;2023-03-03T09:20:14;75.18;;;30.25;;
14665;SDS011;7420;53.574;10.040;2023-03-03T09:22:47;48.45;;;23.00;;
14665;SDS011;7420;53.574;10.040;2023-03-03T09:25:33;45.50;;;22.70;;
14665;SDS011;7420;53.574;10.040;2023-03-03T09:28:01;53.30;;;23.55;;
14665;SDS011;7420;53.574;10.040;2023-03-03T09:30:29;72.00;;;27.38;;
14665;SDS011;7420;53.574;10.040;2023-03-03T09:33:23;64.22;;;26.90;;
14665;SDS011;7420;53.574;10.040;2023-03-03T09:38:46;54.60;;;21.60;;
14665;SDS011;7420;53.574;10.040;2023-03-03T10:00:07;39.35;;;17.63;;
14665;SDS011;7420;53.574;10.040;2023-03-03T10:05:27;46.88;;;22.42;;
14665;SDS011;7420;53.574;10.040;2023-03-03T10:08:16;42.30;;;19.10;;
14665;SDS011;7420;53.574;10.040;2023-03-03T10:10:47;44.08;;;19.15;;
14665;SDS011;7420;53.574;10.040;2023-03-03T10:13:43;59.38;;;22.77;;
14665;SDS011;7420;53.574;10.040;2023-03-03T10:19:14;61.17;;;24.90;;
14665;SDS011;7420;53.574;10.040;2023-03-03T10:22:15;54.15;;;23.35;;
14665;SDS011;7420;53.574;10.040;2023-03-03T10:24:46;41.15;;;19.00;;
14665;SDS011;7420;53.574;10.040;2023-03-03T10:27:38;39.42;;;19.33;;
14665;SDS011;7420;53.574;10.040;2023-03-03T10:32:57;35.50;;;16.38;;
14665;SDS011;7420;53.574;10.040;2023-03-03T10:52:01;27.98;;;13.50;;
14665;SDS011;7420;53.574;10.040;2023-03-03T10:57:40;25.08;;;12.45;;
14665;SDS011;7420;53.574;10.040;2023-03-03T11:09:07;26.60;;;13.90;;
14665;SDS011;7420;53.574;10.040;2023-03-03T11:11:51;27.98;;;14.73;;
14665;SDS011;7420;53.574;10.040;2023-03-03T11:14:23;30.55;;;15.43;;
14665;SDS011;7420;53.574;10.040;2023-03-03T11:17:12;31.70;;;17.75;;
14665;SDS011;7420;53.574;10.040;2023-03-03T11:20:02;36.30;;;17.33;;
14665;SDS011;7420;53.574;10.040;2023-03-03T11:22:42;28.30;;;14.05;;
14665;SDS011;7420;53.574;10.040;2023-03-03T11:36:35;35.65;;;17.00;;
14665;SDS011;7420;53.574;10.040;2023-03-03T11:39:04;38.00;;;17.70;;
14665;SDS011;7420;53.574;10.040;2023-03-03T11:41:34;33.38;;;16.17;;
14665;SDS011;7420;53.574;10.040;2023-03-03T11:47:15;36.13;;;18.23;;
14665;SDS011;7420;53.574;10.040;2023-03-03T11:49:47;37.13;;;17.48;;
14665;SDS011;7420;53.574;10.040;2023-03-03T11:55:13;28.83;;;16.52;;
14665;SDS011;7420;53.574;10.040;2023-03-03T12:03:07;23.13;;;13.23;;
14665;SDS011;7420;53.574;10.040;2023-03-03T12:08:17;25.17;;;13.50;;
14665;SDS011;7420;53.574;10.040;2023-03-03T12:10:58;24.67;;;12.30;;
14665;SDS011;7420;53.574;10.040;2023-03-03T12:21:45;21.27;;;12.23;;
14665;SDS011;7420;53.574;10.040;2023-03-03T12:27:22;25.02;;;12.45;;
14665;SDS011;7420;53.574;10.040;2023-03-03T12:29:54;24.45;;;11.40;;
14665;SDS011;7420;53.574;10.040;2023-03-03T12:32:22;22.08;;;10.90;;
14665;SDS011;7420;53.574;10.040;2023-03-03T12:35:05;23.02;;;11.70;;
14665;SDS011;7420;53.574;10.040;2023-03-03T12:40:33;17.88;;;10.77;;
14665;SDS011;7420;53.574;10.040;2023-03-03T12:43:09;24.05;;;11.45;;
14665;SDS011;7420;53.574;10.040;2023-03-03T12:48:39;25.73;;;11.93;;
14665;SDS011;7420;53.574;10.040;2023-03-03T12:53:51;19.80;;;9.98;;
14665;SDS011;7420;53.574;10.040;2023-03-03T12:56:47;23.42;;;10.68;;
14665;SDS011;7420;53.574;10.040;2023-03-03T12:59:19;24.48;;;8.60;;
14665;SDS011;7420;53.574;10.040;2023-03-03T13:07:56;10.68;;;5.88;;
14665;SDS011;7420;53.574;10.040;2023-03-03T13:10:38;9.90;;;5.47;;
14665;SDS011;7420;53.574;10.040;2023-03-03T13:13:10;8.55;;;4.70;;
14665;SDS011;7420;53.574;10.040;2023-03-03T13:15:44;13.00;;;5.88;;
14665;SDS011;7420;53.574;10.040;2023-03-03T13:21:05;8.20;;;4.55;;
14665;SDS011;7420;53.574;10.040;2023-03-03T13:31:32;7.28;;;4.03;;
14665;SDS011;7420;53.574;10.040;2023-03-03T13:34:03;6.28;;;3.80;;
14665;SDS011;7420;53.574;10.040;2023-03-03T13:36:44;6.78;;;3.90;;
14665;SDS011;7420;53.574;10.040;2023-03-03T13:39:24;10.75;;;4.65;;
14665;SDS011;7420;53.574;10.040;2023-03-03T13:41:56;8.50;;;3.72;;
14665;SDS011;7420;53.574;10.040;2023-03-03T13:44:39;6.95;;;4.03;;
14665;SDS011;7420;53.574;10.040;2023-03-03T13:47:14;9.68;;;3.08;;
14665;SDS011;7420;53.574;10.040;2023-03-03T13:49:45;5.93;;;3.03;;
14665;SDS011;7420;53.574;10.040;2023-03-03T13:52:28;6.55;;;3.20;;
14665;SDS011;7420;53.574;10.040;2023-03-03T14:00:39;4.85;;;2.10;;
14665;SDS011;7420;53.574;10.040;2023-03-03T14:06:01;6.07;;;3.67;;
14665;SDS011;7420;53.574;10.040;2023-03-03T14:11:45;5.50;;;2.45;;
14665;SDS011;7420;53.574;10.040;2023-03-03T14:17:20;7.43;;;2.55;;
14665;SDS011;7420;53.574;10.040;2023-03-03T14:20:00;4.18;;;2.40;;
14665;SDS011;7420;53.574;10.040;2023-03-03T14:22:58;4.07;;;2.08;;
14665;SDS011;7420;53.574;10.040;2023-03-03T14:25:31;5.68;;;2.35;;
14665;SDS011;7420;53.574;10.040;2023-03-03T14:28:19;5.35;;;1.60;;
14665;SDS011;7420;53.574;10.040;2023-03-03T14:30:46;4.93;;;1.90;;
14665;SDS011;7420;53.574;10.040;2023-03-03T14:35:39;1.92;;;1.75;;
14665;SDS011;7420;53.574;10.040;2023-03-03T14:38:13;5.97;;;1.80;;
14665;SDS011;7420;53.574;10.040;2023-03-03T14:40:40;4.72;;;2.00;;
14665;SDS011;7420;53.574;10.040;2023-03-03T14:49:12;5.43;;;2.17;;
14665;SDS011;7420;53.574;10.040;2023-03-03T14:51:56;9.88;;;2.58;;
14665;SDS011;7420;53.574;10.040;2023-03-03T14:54:28;4.95;;;2.42;;
14665;SDS011;7420;53.574;10.040;2023-03-03T14:57:00;2.97;;;1.70;;
14665;SDS011;7420;53.574;10.040;2023-03-03T14:59:56;3.00;;;2.38;;
14665;SDS011;7420;53.574;10.040;2023-03-03T15:05:09;5.70;;;1.73;;
14665;SDS011;7420;53.574;10.040;2023-03-03T15:07:40;11.30;;;2.50;;
14665;SDS011;7420;53.574;10.040;2023-03-03T15:10:07;6.15;;;2.00;;
14665;SDS011;7420;53.574;10.040;2023-03-03T15:12:37;5.15;;;2.05;;
14665;SDS011;7420;53.574;10.040;2023-03-03T15:15:10;6.85;;;2.90;;
14665;SDS011;7420;53.574;10.040;2023-03-03T15:17:52;5.93;;;2.30;;
14665;SDS011;7420;53.574;10.040;2023-03-03T15:39:09;7.00;;;2.47;;
14665;SDS011;7420;53.574;10.040;2023-03-03T15:47:00;6.28;;;2.95;;
14665;SDS011;7420;53.574;10.040;2023-03-03T16:01:01;13.52;;;4.03;;
14665;SDS011;7420;53.574;10.040;2023-03-03T16:03:39;8.45;;;2.85;;
14665;SDS011;7420;53.574;10.040;2023-03-03T16:06:15;5.15;;;2.70;;
14665;SDS011;7420;53.574;10.040;2023-03-03T16:08:55;8.70;;;2.70;;
14665;SDS011;7420;53.574;10.040;2023-03-03T16:11:24;7.70;;;2.88;;
14665;SDS011;7420;53.574;10.040;2023-03-03T16:14:03;8.43;;;2.80;;
14665;SDS011;7420;53.574;10.040;2023-03-03T16:16:51;13.77;;;3.55;;
14665;SDS011;7420;53.574;10.040;2023-03-03T16:19:24;7.78;;;2.67;;
14665;SDS011;7420;53.574;10.040;2023-03-03T16:22:07;6.43;;;3.35;;
14665;SDS011;7420;53.574;10.040;2023-03-03T16:27:39;7.18;;;3.22;;
14665;SDS011;7420;53.574;10.040;2023-03-03T16:32:50;8.88;;;2.78;;
14665;SDS011;7420;53.574;10.040;2023-03-03T16:35:42;6.38;;;3.33;;
14665;SDS011;7420;53.574;10.040;2023-03-03T16:38:12;14.23;;;3.22;;
14665;SDS011;7420;53.574;10.040;2023-03-03T16:40:53;9.13;;;3.10;;
14665;SDS011;7420;53.574;10.040;2023-03-03T16:43:26;7.35;;;3.28;;
14665;SDS011;7420;53.574;10.040;2023-03-03T16:49:22;7.25;;;2.97;;
14665;SDS011;7420;53.574;10.040;2023-03-03T16:52:06;17.00;;;3.70;;
14665;SDS011;7420;53.574;10.040;2023-03-03T17:00:07;12.32;;;3.47;;
14665;SDS011;7420;53.574;10.040;2023-03-03T17:08:00;13.68;;;4.15;;
14665;SDS011;7420;53.574;10.040;2023-03-03T17:10:31;10.80;;;3.60;;
14665;SDS011;7420;53.574;10.040;2023-03-03T17:13:16;19.67;;;3.80;;
14665;SDS011;7420;53.574;10.040;2023-03-03T17:24:22;10.80;;;3.03;;
14665;SDS011;7420;53.574;10.040;2023-03-03T17:32:14;13.73;;;3.55;;
14665;SDS011;7420;53.574;10.040;2023-03-03T17:35:11;13.35;;;4.03;;
14665;SDS011;7420;53.574;10.040;2023-03-03T17:45:33;10.95;;;3.38;;
14665;SDS011;7420;53.574;10.040;2023-03-03T17:50:53;17.27;;;4.15;;
14665;SDS011;7420;53.574;10.040;2023-03-03T17:59:06;10.60;;;3.33;;
14665;SDS011;7420;53.574;10.040;2023-03-03T18:12:55;15.85;;;3.88;;
14665;SDS011;7420;53.574;10.040;2023-03-03T18:23:42;13.32;;;3.20;;
14665;SDS011;7420;53.574;10.040;2023-03-03T18:34:39;16.90;;;3.88;;
14665;SDS011;7420;53.574;10.040;2023-03-03T18:50:37;14.20;;;4.20;;
14665;SDS011;7420;53.574;10.040;2023-03-03T18:53:26;18.87;;;4.63;;
14665;SDS011;7420;53.574;10.040;2023-03-03T18:55:56;16.00;;;4.70;;
14665;SDS011;7420;53.574;10.040;2023-03-03T18:58:32;19.75;;;4.53;;
14665;SDS011;7420;53.574;10.040;2023-03-03T19:03:35;19.73;;;4.20;;
14665;SDS011;7420;53.574;10.040;2023-03-03T19:06:29;19.80;;;4.22;;
14665;SDS011;7420;53.574;10.040;2023-03-03T19:08:55;15.07;;;3.90;;
14665;SDS011;7420;53.574;10.040;2023-03-03T19:11:41;13.73;;;4.75;;
14665;SDS011;7420;53.574;10.040;2023-03-03T19:14:18;19.05;;;4.90;;
14665;SDS011;7420;53.574;10.040;2023-03-03T19:16:58;20.55;;;5.15;;
14665;SDS011;7420;53.574;10.040;2023-03-03T19:22:42;18.77;;;3.88;;
14665;SDS011;7420;53.574;10.040;2023-03-03T19:27:38;19.48;;;4.38;;
14665;SDS011;7420;53.574;10.040;2023-03-03T19:30:15;18.48;;;4.65;;
14665;SDS011;7420;53.574;10.040;2023-03-03T19:38:05;16.23;;;5.10;;
14665;SDS011;7420;53.574;10.040;2023-03-03T19:43:35;18.77;;;4.83;;
14665;SDS011;7420;53.574;10.040;2023-03-03T19:46:25;19.95;;;4.63;;
14665;SDS011;7420;53.574;10.040;2023-03-03T19:51:54;11.90;;;3.78;;
14665;SDS011;7420;53.574;10.040;2023-03-03T19:57:48;21.25;;;4.65;;
14665;SDS011;7420;53.574;10.040;2023-03-03T20:00:56;21.08;;;5.30;;
14665;SDS011;7420;53.574;10.040;2023-03-03T20:03:56;19.67;;;4.30;;
14665;SDS011;7420;53.574;10.040;2023-03-03T20:06:48;20.88;;;5.38;;
14665;SDS011;7420;53.574;10.040;2023-03-03T20:09:25;27.85;;;6.93;;
14665;SDS011;7420;53.574;10.040;2023-03-03T20:20:14;26.17;;;6.57;;
14665;SDS011;7420;53.574;10.040;2023-03-03T20:22:47;22.35;;;7.47;;
14665;SDS011;7420;53.574;10.040;2023-03-03T20:25:39;25.60;;;5.68;;
14665;SDS011;7420;53.574;10.040;2023-03-03T20:44:42;21.23;;;7.22;;